sensor_id;sensor_type;location;lat;lon;timestamp;temperature;humidity
58513;DHT22;44302;47.914;10.642;2022-08-19T00:00:09;16.80;99.90
58513;DHT22;44302;47.914;10.642;2022-08-19T00:02:36;16.80;99.90
58513;DHT22;44302;47.914;10.642;2022-08-19T00:05:02;16.80;99.90
58513;DHT22;44302;47.914;10.642;2022-08-19T00:07:28;16.80;99.90
58513;DHT22;44302;47.914;10.642;2022-08-19T00:09:54;16.80;99.90
58513;DHT22;44302;47.914;10.642;2022-08-19T00:12:20;16.80;99.90
58513;DHT22;44302;47.914;10.642;2022-08-19T00:17:12;16.70;99.90
58513;DHT22;44302;47.914;10.642;2022-08-19T00:19:38;16.80;99.90
58513;DHT22;44302;47.914;10.642;2022-08-19T00:22:04;16.70;99.90
58513;DHT22;44302;47.914;10.642;2022-08-19T00:24:31;16.80;99.90
58513;DHT22;44302;47.914;10.642;2022-08-19T00:26:57;16.80;99.90
58513;DHT22;44302;47.914;10.642;2022-08-19T00:29:25;16.70;99.90
58513;DHT22;44302;47.914;10.642;2022-08-19T00:31:51;16.70;99.90
58513;DHT22;44302;47.914;10.642;2022-08-19T00:34:22;16.70;99.90
58513;DHT22;44302;47.914;10.642;2022-08-19T00:36:49;16.80;99.90
58513;DHT22;44302;47.914;10.642;2022-08-19T00:39:15;16.70;99.90
58513;DHT22;44302;47.914;10.642;2022-08-19T00:41:43;16.90;99.90
58513;DHT22;44302;47.914;10.642;2022-08-19T00:44:15;16.70;99.90
58513;DHT22;44302;47.914;10.642;2022-08-19T00:46:44;16.70;99.90
58513;DHT22;44302;47.914;10.642;2022-08-19T00:49:20;16.70;99.90
58513;DHT22;44302;47.914;10.642;2022-08-19T00:51:53;16.70;99.90
58513;DHT22;44302;47.914;10.642;2022-08-19T00:54:20;16.60;99.90
58513;DHT22;44302;47.914;10.642;2022-08-19T00:56:47;16.70;99.90
58513;DHT22;44302;47.914;10.642;2022-08-19T00:59:14;16.70;99.90
58513;DHT22;44302;47.914;10.642;2022-08-19T01:01:42;16.80;99.90
58513;DHT22;44302;47.914;10.642;2022-08-19T01:04:09;16.80;99.90
58513;DHT22;44302;47.914;10.642;2022-08-19T01:06:36;16.80;99.90
58513;DHT22;44302;47.914;10.642;2022-08-19T01:09:03;16.70;99.90
58513;DHT22;44302;47.914;10.642;2022-08-19T01:11:30;16.80;99.90
58513;DHT22;44302;47.914;10.642;2022-08-19T01:13:57;16.80;99.90
58513;DHT22;44302;47.914;10.642;2022-08-19T01:16:25;16.80;99.90
58513;DHT22;44302;47.914;10.642;2022-08-19T01:18:52;16.90;99.90
58513;DHT22;44302;47.914;10.642;2022-08-19T01:21:36;16.80;99.90
58513;DHT22;44302;47.914;10.642;2022-08-19T01:24:03;16.80;99.90
58513;DHT22;44302;47.914;10.642;2022-08-19T01:26:29;16.70;99.90
58513;DHT22;44302;47.914;10.642;2022-08-19T01:28:58;17.00;99.90
58513;DHT22;44302;47.914;10.642;2022-08-19T01:31:26;16.80;99.90
58513;DHT22;44302;47.914;10.642;2022-08-19T01:33:54;16.80;99.90
58513;DHT22;44302;47.914;10.642;2022-08-19T01:38:56;16.90;99.90
58513;DHT22;44302;47.914;10.642;2022-08-19T01:41:23;16.80;99.90
58513;DHT22;44302;47.914;10.642;2022-08-19T01:43:52;16.80;99.90
58513;DHT22;44302;47.914;10.642;2022-08-19T01:46:18;16.80;99.90
58513;DHT22;44302;47.914;10.642;2022-08-19T01:48:45;16.80;99.90
58513;DHT22;44302;47.914;10.642;2022-08-19T01:51:12;16.90;99.90
58513;DHT22;44302;47.914;10.642;2022-08-19T01:53:38;16.80;99.90
58513;DHT22;44302;47.914;10.642;2022-08-19T01:56:05;16.80;99.90
58513;DHT22;44302;47.914;10.642;2022-08-19T01:58:38;16.90;99.90
58513;DHT22;44302;47.914;10.642;2022-08-19T02:01:06;16.90;99.90
58513;DHT22;44302;47.914;10.642;2022-08-19T02:03:32;16.90;99.90
58513;DHT22;44302;47.914;10.642;2022-08-19T02:06:01;16.80;99.90
58513;DHT22;44302;47.914;10.642;2022-08-19T02:08:29;16.80;99.90
58513;DHT22;44302;47.914;10.642;2022-08-19T02:10:55;16.70;99.90
58513;DHT22;44302;47.914;10.642;2022-08-19T02:13:22;16.90;99.90
58513;DHT22;44302;47.914;10.642;2022-08-19T02:15:48;16.90;99.90
58513;DHT22;44302;47.914;10.642;2022-08-19T02:18:14;16.90;99.90
58513;DHT22;44302;47.914;10.642;2022-08-19T02:20:41;16.90;99.90
58513;DHT22;44302;47.914;10.642;2022-08-19T02:23:09;16.90;99.90
58513;DHT22;44302;47.914;10.642;2022-08-19T02:25:34;16.90;99.90
58513;DHT22;44302;47.914;10.642;2022-08-19T02:30:28;17.00;99.90
58513;DHT22;44302;47.914;10.642;2022-08-19T02:37:46;17.10;99.90
58513;DHT22;44302;47.914;10.642;2022-08-19T02:40:31;17.00;99.90
58513;DHT22;44302;47.914;10.642;2022-08-19T02:43:00;17.00;99.90
58513;DHT22;44302;47.914;10.642;2022-08-19T02:45:31;17.20;99.90
58513;DHT22;44302;47.914;10.642;2022-08-19T02:47:57;17.00;99.90
58513;DHT22;44302;47.914;10.642;2022-08-19T02:50:22;17.00;99.90
58513;DHT22;44302;47.914;10.642;2022-08-19T02:55:14;17.30;99.90
58513;DHT22;44302;47.914;10.642;2022-08-19T02:57:40;17.00;99.90
58513;DHT22;44302;47.914;10.642;2022-08-19T03:00:08;17.10;99.90
58513;DHT22;44302;47.914;10.642;2022-08-19T03:02:38;16.60;99.90
58513;DHT22;44302;47.914;10.642;2022-08-19T03:05:05;16.90;99.90
58513;DHT22;44302;47.914;10.642;2022-08-19T03:07:31;16.60;99.90
58513;DHT22;44302;47.914;10.642;2022-08-19T03:09:57;16.90;99.90
58513;DHT22;44302;47.914;10.642;2022-08-19T03:12:22;16.70;99.90
58513;DHT22;44302;47.914;10.642;2022-08-19T03:14:48;16.60;99.90
58513;DHT22;44302;47.914;10.642;2022-08-19T03:19:40;17.00;99.90
58513;DHT22;44302;47.914;10.642;2022-08-19T03:29:28;16.80;99.90
58513;DHT22;44302;47.914;10.642;2022-08-19T03:31:54;16.90;99.90
58513;DHT22;44302;47.914;10.642;2022-08-19T03:34:28;16.80;99.90
58513;DHT22;44302;47.914;10.642;2022-08-19T03:36:56;16.90;99.90
58513;DHT22;44302;47.914;10.642;2022-08-19T03:39:23;16.70;99.90
58513;DHT22;44302;47.914;10.642;2022-08-19T03:41:52;16.80;99.90
58513;DHT22;44302;47.914;10.642;2022-08-19T03:44:21;16.60;99.90
58513;DHT22;44302;47.914;10.642;2022-08-19T03:46:51;16.40;99.90
58513;DHT22;44302;47.914;10.642;2022-08-19T03:49:18;16.80;99.90
58513;DHT22;44302;47.914;10.642;2022-08-19T03:51:45;16.70;99.90
58513;DHT22;44302;47.914;10.642;2022-08-19T03:54:12;16.70;99.90
58513;DHT22;44302;47.914;10.642;2022-08-19T03:56:39;16.70;99.90
58513;DHT22;44302;47.914;10.642;2022-08-19T03:59:08;16.70;99.90
58513;DHT22;44302;47.914;10.642;2022-08-19T04:01:34;16.80;99.90
58513;DHT22;44302;47.914;10.642;2022-08-19T04:04:01;16.80;99.90
58513;DHT22;44302;47.914;10.642;2022-08-19T04:06:29;16.80;99.90
58513;DHT22;44302;47.914;10.642;2022-08-19T04:08:57;16.80;99.90
58513;DHT22;44302;47.914;10.642;2022-08-19T04:11:30;16.70;99.90
58513;DHT22;44302;47.914;10.642;2022-08-19T04:13:56;16.50;99.90
58513;DHT22;44302;47.914;10.642;2022-08-19T04:16:24;16.70;99.90
58513;DHT22;44302;47.914;10.642;2022-08-19T04:18:50;16.70;99.90
58513;DHT22;44302;47.914;10.642;2022-08-19T04:21:21;16.70;99.90
58513;DHT22;44302;47.914;10.642;2022-08-19T04:23:47;16.50;99.90
58513;DHT22;44302;47.914;10.642;2022-08-19T04:26:24;16.70;99.90
58513;DHT22;44302;47.914;10.642;2022-08-19T04:28:51;16.70;99.90
58513;DHT22;44302;47.914;10.642;2022-08-19T04:31:29;16.70;99.90
58513;DHT22;44302;47.914;10.642;2022-08-19T04:33:59;16.50;99.90
58513;DHT22;44302;47.914;10.642;2022-08-19T04:36:30;16.80;99.90
58513;DHT22;44302;47.914;10.642;2022-08-19T04:38:58;16.80;99.90
58513;DHT22;44302;47.914;10.642;2022-08-19T04:41:24;16.80;99.90
58513;DHT22;44302;47.914;10.642;2022-08-19T04:44:09;16.60;99.90
58513;DHT22;44302;47.914;10.642;2022-08-19T04:46:36;16.60;99.90
58513;DHT22;44302;47.914;10.642;2022-08-19T04:49:03;16.90;99.90
58513;DHT22;44302;47.914;10.642;2022-08-19T04:51:30;16.80;99.90
58513;DHT22;44302;47.914;10.642;2022-08-19T04:53:56;16.70;99.90
58513;DHT22;44302;47.914;10.642;2022-08-19T04:56:22;16.90;99.90
58513;DHT22;44302;47.914;10.642;2022-08-19T05:01:22;16.90;99.90
58513;DHT22;44302;47.914;10.642;2022-08-19T05:03:49;16.90;99.90
58513;DHT22;44302;47.914;10.642;2022-08-19T05:06:17;16.90;99.90
58513;DHT22;44302;47.914;10.642;2022-08-19T05:08:44;17.00;99.90
58513;DHT22;44302;47.914;10.642;2022-08-19T05:11:15;17.00;99.90
58513;DHT22;44302;47.914;10.642;2022-08-19T05:13:43;16.80;99.90
58513;DHT22;44302;47.914;10.642;2022-08-19T05:16:10;16.80;99.90
58513;DHT22;44302;47.914;10.642;2022-08-19T05:18:37;17.00;99.90
58513;DHT22;44302;47.914;10.642;2022-08-19T05:21:21;17.00;99.90
58513;DHT22;44302;47.914;10.642;2022-08-19T05:24:06;17.00;99.90
58513;DHT22;44302;47.914;10.642;2022-08-19T05:26:43;17.20;99.90
58513;DHT22;44302;47.914;10.642;2022-08-19T05:29:12;17.30;99.90
58513;DHT22;44302;47.914;10.642;2022-08-19T05:34:05;17.00;99.90
58513;DHT22;44302;47.914;10.642;2022-08-19T05:36:44;17.20;99.90
58513;DHT22;44302;47.914;10.642;2022-08-19T05:39:13;17.10;99.90
58513;DHT22;44302;47.914;10.642;2022-08-19T05:41:43;17.10;99.90
58513;DHT22;44302;47.914;10.642;2022-08-19T05:46:37;17.20;99.90
58513;DHT22;44302;47.914;10.642;2022-08-19T05:49:06;17.20;99.90
58513;DHT22;44302;47.914;10.642;2022-08-19T05:51:34;17.20;99.90
58513;DHT22;44302;47.914;10.642;2022-08-19T05:54:03;17.40;99.90
58513;DHT22;44302;47.914;10.642;2022-08-19T05:56:30;17.20;99.90
58513;DHT22;44302;47.914;10.642;2022-08-19T06:01:22;17.40;99.90
58513;DHT22;44302;47.914;10.642;2022-08-19T06:06:15;17.30;99.90
58513;DHT22;44302;47.914;10.642;2022-08-19T06:11:21;17.10;99.90
58513;DHT22;44302;47.914;10.642;2022-08-19T06:13:50;17.20;99.90
58513;DHT22;44302;47.914;10.642;2022-08-19T06:16:17;17.10;99.90
58513;DHT22;44302;47.914;10.642;2022-08-19T06:18:52;17.10;99.90
58513;DHT22;44302;47.914;10.642;2022-08-19T07:17:27;17.20;99.90
58513;DHT22;44302;47.914;10.642;2022-08-19T07:19:53;17.10;99.90
58513;DHT22;44302;47.914;10.642;2022-08-19T07:22:18;17.10;99.90
58513;DHT22;44302;47.914;10.642;2022-08-19T07:24:46;17.10;99.90
58513;DHT22;44302;47.914;10.642;2022-08-19T07:27:13;17.10;99.90
58513;DHT22;44302;47.914;10.642;2022-08-19T07:29:39;17.20;99.90
58513;DHT22;44302;47.914;10.642;2022-08-19T07:32:05;17.20;99.90
58513;DHT22;44302;47.914;10.642;2022-08-19T08:10:41;17.20;99.90
58513;DHT22;44302;47.914;10.642;2022-08-19T08:13:07;17.10;99.90
58513;DHT22;44302;47.914;10.642;2022-08-19T08:15:33;17.20;99.90
58513;DHT22;44302;47.914;10.642;2022-08-19T08:20:25;17.20;99.90
58513;DHT22;44302;47.914;10.642;2022-08-19T08:47:28;17.20;99.90
58513;DHT22;44302;47.914;10.642;2022-08-19T08:50:05;17.20;99.90
58513;DHT22;44302;47.914;10.642;2022-08-19T08:52:39;17.20;99.90
58513;DHT22;44302;47.914;10.642;2022-08-19T08:55:14;17.20;99.90
58513;DHT22;44302;47.914;10.642;2022-08-19T08:57:55;17.20;99.90
58513;DHT22;44302;47.914;10.642;2022-08-19T09:00:26;17.20;99.90
58513;DHT22;44302;47.914;10.642;2022-08-19T09:38:37;17.10;99.90
58513;DHT22;44302;47.914;10.642;2022-08-19T09:41:20;17.20;99.90
58513;DHT22;44302;47.914;10.642;2022-08-19T09:43:49;17.10;99.90
58513;DHT22;44302;47.914;10.642;2022-08-19T09:46:17;17.20;99.90
58513;DHT22;44302;47.914;10.642;2022-08-19T09:48:43;17.20;99.90
58513;DHT22;44302;47.914;10.642;2022-08-19T09:51:15;17.20;99.90
58513;DHT22;44302;47.914;10.642;2022-08-19T09:53:43;17.20;99.90
58513;DHT22;44302;47.914;10.642;2022-08-19T11:28:51;16.70;99.90
58513;DHT22;44302;47.914;10.642;2022-08-19T11:31:21;16.80;99.90
58513;DHT22;44302;47.914;10.642;2022-08-19T11:33:47;16.70;99.90
58513;DHT22;44302;47.914;10.642;2022-08-19T11:36:16;16.80;99.90
58513;DHT22;44302;47.914;10.642;2022-08-19T11:38:43;16.80;99.90
58513;DHT22;44302;47.914;10.642;2022-08-19T11:41:08;16.90;99.90
58513;DHT22;44302;47.914;10.642;2022-08-19T11:43:35;17.00;99.90
58513;DHT22;44302;47.914;10.642;2022-08-19T11:46:06;17.00;99.90
58513;DHT22;44302;47.914;10.642;2022-08-19T11:48:35;16.90;99.90
58513;DHT22;44302;47.914;10.642;2022-08-19T11:51:05;17.00;99.90
58513;DHT22;44302;47.914;10.642;2022-08-19T11:53:32;17.10;99.90
58513;DHT22;44302;47.914;10.642;2022-08-19T11:55:58;17.10;99.90
58513;DHT22;44302;47.914;10.642;2022-08-19T12:00:53;17.10;99.90
58513;DHT22;44302;47.914;10.642;2022-08-19T12:03:19;17.20;99.90
58513;DHT22;44302;47.914;10.642;2022-08-19T12:05:45;17.20;99.90
58513;DHT22;44302;47.914;10.642;2022-08-19T12:08:12;17.20;99.90
58513;DHT22;44302;47.914;10.642;2022-08-19T12:10:39;17.30;99.90
58513;DHT22;44302;47.914;10.642;2022-08-19T12:13:06;17.40;99.90
58513;DHT22;44302;47.914;10.642;2022-08-19T12:15:40;17.40;99.90
58513;DHT22;44302;47.914;10.642;2022-08-19T12:18:06;17.50;99.90
58513;DHT22;44302;47.914;10.642;2022-08-19T12:20:38;17.50;99.90
58513;DHT22;44302;47.914;10.642;2022-08-19T12:23:06;17.60;99.90
58513;DHT22;44302;47.914;10.642;2022-08-19T12:25:32;17.70;99.90
58513;DHT22;44302;47.914;10.642;2022-08-19T12:27:59;17.70;99.90
58513;DHT22;44302;47.914;10.642;2022-08-19T12:32:51;17.70;99.90
58513;DHT22;44302;47.914;10.642;2022-08-19T12:35:18;17.70;99.90
58513;DHT22;44302;47.914;10.642;2022-08-19T12:37:46;17.70;99.90
58513;DHT22;44302;47.914;10.642;2022-08-19T12:40:14;17.60;99.90
58513;DHT22;44302;47.914;10.642;2022-08-19T12:42:40;17.70;99.90
58513;DHT22;44302;47.914;10.642;2022-08-19T12:45:11;17.70;99.90
58513;DHT22;44302;47.914;10.642;2022-08-19T12:47:37;17.80;99.90
58513;DHT22;44302;47.914;10.642;2022-08-19T12:50:03;17.50;99.90
58513;DHT22;44302;47.914;10.642;2022-08-19T12:52:30;18.00;99.90
58513;DHT22;44302;47.914;10.642;2022-08-19T12:54:56;18.00;99.90
58513;DHT22;44302;47.914;10.642;2022-08-19T12:57:24;18.10;99.90
58513;DHT22;44302;47.914;10.642;2022-08-19T12:59:53;18.10;99.90
58513;DHT22;44302;47.914;10.642;2022-08-19T13:02:19;18.50;99.90
58513;DHT22;44302;47.914;10.642;2022-08-19T13:04:45;18.30;99.90
58513;DHT22;44302;47.914;10.642;2022-08-19T13:07:11;18.40;99.90
58513;DHT22;44302;47.914;10.642;2022-08-19T13:09:37;18.20;99.90
58513;DHT22;44302;47.914;10.642;2022-08-19T13:12:03;18.20;99.90
58513;DHT22;44302;47.914;10.642;2022-08-19T13:14:34;18.20;99.90
58513;DHT22;44302;47.914;10.642;2022-08-19T13:17:00;18.10;99.90
58513;DHT22;44302;47.914;10.642;2022-08-19T13:19:26;18.10;99.90
58513;DHT22;44302;47.914;10.642;2022-08-19T13:21:52;18.10;99.90
58513;DHT22;44302;47.914;10.642;2022-08-19T13:24:19;18.20;99.90
58513;DHT22;44302;47.914;10.642;2022-08-19T13:26:44;18.20;99.90
58513;DHT22;44302;47.914;10.642;2022-08-19T13:29:10;18.40;99.90
58513;DHT22;44302;47.914;10.642;2022-08-19T13:31:54;18.40;99.90
58513;DHT22;44302;47.914;10.642;2022-08-19T13:34:38;18.40;99.90
58513;DHT22;44302;47.914;10.642;2022-08-19T13:37:05;18.30;99.90
58513;DHT22;44302;47.914;10.642;2022-08-19T13:39:36;18.20;99.90
58513;DHT22;44302;47.914;10.642;2022-08-19T13:42:02;18.30;99.90
58513;DHT22;44302;47.914;10.642;2022-08-19T13:44:29;18.40;99.90
58513;DHT22;44302;47.914;10.642;2022-08-19T13:47:02;18.50;99.90
58513;DHT22;44302;47.914;10.642;2022-08-19T13:49:31;18.60;99.90
58513;DHT22;44302;47.914;10.642;2022-08-19T13:51:57;19.00;99.90
58513;DHT22;44302;47.914;10.642;2022-08-19T13:54:23;19.10;99.90
58513;DHT22;44302;47.914;10.642;2022-08-19T13:56:49;19.30;99.90
58513;DHT22;44302;47.914;10.642;2022-08-19T13:59:15;19.30;99.90
58513;DHT22;44302;47.914;10.642;2022-08-19T14:01:41;19.40;99.90
58513;DHT22;44302;47.914;10.642;2022-08-19T14:04:08;19.40;99.90
58513;DHT22;44302;47.914;10.642;2022-08-19T14:06:34;19.40;99.90
58513;DHT22;44302;47.914;10.642;2022-08-19T14:09:00;19.20;99.90
58513;DHT22;44302;47.914;10.642;2022-08-19T14:11:27;19.10;99.90
58513;DHT22;44302;47.914;10.642;2022-08-19T14:13:53;19.00;99.90
58513;DHT22;44302;47.914;10.642;2022-08-19T14:16:19;19.00;99.90
58513;DHT22;44302;47.914;10.642;2022-08-19T14:18:45;19.20;99.90
58513;DHT22;44302;47.914;10.642;2022-08-19T14:21:20;19.20;99.90
58513;DHT22;44302;47.914;10.642;2022-08-19T14:23:49;19.20;99.90
58513;DHT22;44302;47.914;10.642;2022-08-19T14:26:17;19.30;99.90
58513;DHT22;44302;47.914;10.642;2022-08-19T14:28:44;19.20;99.90
58513;DHT22;44302;47.914;10.642;2022-08-19T14:31:11;19.10;99.90
58513;DHT22;44302;47.914;10.642;2022-08-19T14:33:38;19.10;99.90
58513;DHT22;44302;47.914;10.642;2022-08-19T14:36:04;19.10;99.90
58513;DHT22;44302;47.914;10.642;2022-08-19T14:38:31;19.20;99.90
58513;DHT22;44302;47.914;10.642;2022-08-19T14:43:33;19.30;99.90
58513;DHT22;44302;47.914;10.642;2022-08-19T14:45:59;19.30;99.90
58513;DHT22;44302;47.914;10.642;2022-08-19T14:48:25;19.20;99.90
58513;DHT22;44302;47.914;10.642;2022-08-19T14:50:51;19.20;99.90
58513;DHT22;44302;47.914;10.642;2022-08-19T14:53:17;19.50;99.90
58513;DHT22;44302;47.914;10.642;2022-08-19T14:55:44;19.60;99.90
58513;DHT22;44302;47.914;10.642;2022-08-19T14:58:11;19.60;99.90
58513;DHT22;44302;47.914;10.642;2022-08-19T15:00:37;19.40;99.90
58513;DHT22;44302;47.914;10.642;2022-08-19T15:03:03;19.10;99.90
58513;DHT22;44302;47.914;10.642;2022-08-19T15:05:29;19.00;99.90
58513;DHT22;44302;47.914;10.642;2022-08-19T15:07:54;18.90;99.90
58513;DHT22;44302;47.914;10.642;2022-08-19T15:10:22;18.80;99.90
58513;DHT22;44302;47.914;10.642;2022-08-19T15:12:50;18.70;99.90
58513;DHT22;44302;47.914;10.642;2022-08-19T15:15:16;18.60;99.90
58513;DHT22;44302;47.914;10.642;2022-08-19T15:17:46;18.60;99.90
58513;DHT22;44302;47.914;10.642;2022-08-19T15:20:18;18.60;99.90
58513;DHT22;44302;47.914;10.642;2022-08-19T15:22:44;18.40;99.90
58513;DHT22;44302;47.914;10.642;2022-08-19T15:25:13;18.20;99.90
58513;DHT22;44302;47.914;10.642;2022-08-19T15:27:39;18.10;99.90
58513;DHT22;44302;47.914;10.642;2022-08-19T15:30:09;18.10;99.90
58513;DHT22;44302;47.914;10.642;2022-08-19T15:32:37;18.00;99.90
58513;DHT22;44302;47.914;10.642;2022-08-19T15:35:05;18.00;99.90
58513;DHT22;44302;47.914;10.642;2022-08-19T15:37:31;18.00;99.90
58513;DHT22;44302;47.914;10.642;2022-08-19T15:39:57;17.90;99.90
58513;DHT22;44302;47.914;10.642;2022-08-19T15:42:22;17.90;99.90
58513;DHT22;44302;47.914;10.642;2022-08-19T15:44:48;17.90;99.90
58513;DHT22;44302;47.914;10.642;2022-08-19T15:47:14;17.80;99.90
58513;DHT22;44302;47.914;10.642;2022-08-19T15:49:40;17.90;99.90
58513;DHT22;44302;47.914;10.642;2022-08-19T15:52:05;17.80;99.90
58513;DHT22;44302;47.914;10.642;2022-08-19T15:54:32;17.70;99.90
58513;DHT22;44302;47.914;10.642;2022-08-19T15:56:58;17.70;99.90
58513;DHT22;44302;47.914;10.642;2022-08-19T15:59:43;17.70;99.90
58513;DHT22;44302;47.914;10.642;2022-08-19T16:02:28;17.60;99.90
58513;DHT22;44302;47.914;10.642;2022-08-19T16:05:16;17.50;99.90
58513;DHT22;44302;47.914;10.642;2022-08-19T16:08:01;17.50;99.90
58513;DHT22;44302;47.914;10.642;2022-08-19T16:10:27;17.40;99.90
58513;DHT22;44302;47.914;10.642;2022-08-19T16:12:52;17.30;99.90
58513;DHT22;44302;47.914;10.642;2022-08-19T16:15:18;17.30;99.90
58513;DHT22;44302;47.914;10.642;2022-08-19T16:17:46;17.20;99.90
58513;DHT22;44302;47.914;10.642;2022-08-19T16:20:12;17.20;99.90
58513;DHT22;44302;47.914;10.642;2022-08-19T16:22:39;17.10;99.90
58513;DHT22;44302;47.914;10.642;2022-08-19T16:25:06;17.10;99.90
58513;DHT22;44302;47.914;10.642;2022-08-19T16:27:33;17.10;99.90
58513;DHT22;44302;47.914;10.642;2022-08-19T16:29:59;17.10;99.90
58513;DHT22;44302;47.914;10.642;2022-08-19T16:32:25;17.00;99.90
58513;DHT22;44302;47.914;10.642;2022-08-19T16:34:51;17.00;99.90
58513;DHT22;44302;47.914;10.642;2022-08-19T16:37:17;16.90;99.90
58513;DHT22;44302;47.914;10.642;2022-08-19T16:39:43;16.90;99.90
58513;DHT22;44302;47.914;10.642;2022-08-19T16:42:10;16.90;99.90
58513;DHT22;44302;47.914;10.642;2022-08-19T16:44:39;16.90;99.90
58513;DHT22;44302;47.914;10.642;2022-08-19T16:47:05;16.80;99.90
58513;DHT22;44302;47.914;10.642;2022-08-19T16:49:31;16.80;99.90
58513;DHT22;44302;47.914;10.642;2022-08-19T16:51:57;16.70;99.90
58513;DHT22;44302;47.914;10.642;2022-08-19T16:54:22;16.70;99.90
58513;DHT22;44302;47.914;10.642;2022-08-19T16:56:48;16.60;99.90
58513;DHT22;44302;47.914;10.642;2022-08-19T16:59:16;16.50;99.90
58513;DHT22;44302;47.914;10.642;2022-08-19T17:01:42;16.30;99.90
58513;DHT22;44302;47.914;10.642;2022-08-19T17:04:11;16.30;99.90
58513;DHT22;44302;47.914;10.642;2022-08-19T17:06:38;16.10;99.90
58513;DHT22;44302;47.914;10.642;2022-08-19T17:09:05;16.10;99.90
58513;DHT22;44302;47.914;10.642;2022-08-19T17:11:31;16.00;99.90
58513;DHT22;44302;47.914;10.642;2022-08-19T17:14:01;16.00;99.90
58513;DHT22;44302;47.914;10.642;2022-08-19T17:16:32;15.90;99.90
58513;DHT22;44302;47.914;10.642;2022-08-19T17:19:00;16.00;99.90
58513;DHT22;44302;47.914;10.642;2022-08-19T17:21:29;16.00;99.90
58513;DHT22;44302;47.914;10.642;2022-08-19T17:24:00;15.90;99.90
58513;DHT22;44302;47.914;10.642;2022-08-19T17:26:27;16.00;99.90
58513;DHT22;44302;47.914;10.642;2022-08-19T17:28:56;16.00;99.90
58513;DHT22;44302;47.914;10.642;2022-08-19T17:31:24;16.00;99.90
58513;DHT22;44302;47.914;10.642;2022-08-19T17:33:50;16.00;99.90
58513;DHT22;44302;47.914;10.642;2022-08-19T17:36:20;16.00;99.90
58513;DHT22;44302;47.914;10.642;2022-08-19T17:38:57;15.90;99.90
58513;DHT22;44302;47.914;10.642;2022-08-19T17:41:24;15.90;99.90
58513;DHT22;44302;47.914;10.642;2022-08-19T17:43:51;15.90;99.90
58513;DHT22;44302;47.914;10.642;2022-08-19T17:46:17;15.90;99.90
58513;DHT22;44302;47.914;10.642;2022-08-19T17:48:46;15.90;99.90
58513;DHT22;44302;47.914;10.642;2022-08-19T17:51:19;15.90;99.90
58513;DHT22;44302;47.914;10.642;2022-08-19T17:53:46;15.90;99.90
58513;DHT22;44302;47.914;10.642;2022-08-19T17:56:12;15.90;99.90
58513;DHT22;44302;47.914;10.642;2022-08-19T17:58:39;15.90;99.90
58513;DHT22;44302;47.914;10.642;2022-08-19T18:01:10;15.90;99.90
58513;DHT22;44302;47.914;10.642;2022-08-19T18:03:38;15.90;99.90
58513;DHT22;44302;47.914;10.642;2022-08-19T18:06:04;15.90;99.90
58513;DHT22;44302;47.914;10.642;2022-08-19T18:08:31;15.90;99.90
58513;DHT22;44302;47.914;10.642;2022-08-19T18:10:58;16.00;99.90
58513;DHT22;44302;47.914;10.642;2022-08-19T18:13:24;16.00;99.90
58513;DHT22;44302;47.914;10.642;2022-08-19T18:15:49;16.00;99.90
58513;DHT22;44302;47.914;10.642;2022-08-19T18:18:15;16.00;99.90
58513;DHT22;44302;47.914;10.642;2022-08-19T18:23:07;16.10;99.90
58513;DHT22;44302;47.914;10.642;2022-08-19T18:25:33;16.10;99.90
58513;DHT22;44302;47.914;10.642;2022-08-19T18:27:59;16.10;99.90
58513;DHT22;44302;47.914;10.642;2022-08-19T18:30:27;16.10;99.90
58513;DHT22;44302;47.914;10.642;2022-08-19T18:32:59;16.10;99.90
58513;DHT22;44302;47.914;10.642;2022-08-19T18:35:27;16.10;99.90
